createdAt,value
2018-09-11T00:00:17.759Z,0
2018-09-11T00:01:22.920Z,0
2018-09-11T00:02:28.154Z,0
2018-09-11T00:03:33.990Z,0
2018-09-11T00:04:38.321Z,0
2018-09-11T00:05:43.485Z,0
2018-09-11T00:06:48.979Z,0
2018-09-11T00:07:54.127Z,0
2018-09-11T00:08:58.786Z,0
2018-09-11T00:10:03.740Z,0
2018-09-11T00:11:09.007Z,0
2018-09-11T00:12:13.601Z,0
2018-09-11T00:13:18.823Z,0
2018-09-11T00:14:23.677Z,0
2018-09-11T00:15:29.079Z,0
2018-09-11T00:16:33.939Z,0
2018-09-11T00:17:39.457Z,0
2018-09-11T00:18:45.149Z,0
2018-09-11T00:19:50.002Z,0
2018-09-11T00:20:54.978Z,0
2018-09-11T00:22:00.365Z,0
2018-09-11T00:23:05.302Z,0
2018-09-11T00:24:10.758Z,0
2018-09-11T00:25:16.169Z,0
2018-09-11T00:26:21.334Z,0
2018-09-11T00:27:27.024Z,0
2018-09-11T00:28:32.180Z,0
2018-09-11T00:29:37.629Z,0
2018-09-11T00:30:42.752Z,0
2018-09-11T00:31:47.616Z,0
2018-09-11T00:32:52.768Z,0
2018-09-11T00:33:58.089Z,0
2018-09-11T00:35:02.700Z,0
2018-09-11T00:36:07.849Z,0
2018-09-11T00:37:13.556Z,0
2018-09-11T00:38:18.434Z,0
2018-09-11T00:39:23.962Z,0
2018-09-11T00:40:44.613Z,0
2018-09-11T00:41:49.864Z,0
2018-09-11T00:42:55.235Z,0
2018-09-11T00:44:00.385Z,0
2018-09-11T00:45:05.825Z,0
2018-09-11T00:46:11.631Z,0
2018-09-11T00:47:16.816Z,0
2018-09-11T00:48:21.980Z,0
2018-09-11T00:49:27.089Z,0
2018-09-11T00:50:32.271Z,0
2018-09-11T00:51:37.974Z,0
2018-09-11T00:52:43.531Z,0
2018-09-11T00:53:48.972Z,0
2018-09-11T00:54:54.812Z,0
2018-09-11T00:56:00.233Z,0
2018-09-11T01:02:01.958Z,0
2018-09-11T01:03:06.569Z,0
2018-09-11T01:04:12.649Z,0
2018-09-11T01:05:18.122Z,0
2018-09-11T01:06:23.552Z,0
2018-09-11T01:07:28.875Z,0
2018-09-11T01:08:34.072Z,0
2018-09-11T01:09:39.783Z,0
2018-09-11T01:10:44.927Z,0
2018-09-11T01:11:50.351Z,0
2018-09-11T01:12:55.762Z,0
2018-09-11T01:14:01.181Z,0
2018-09-11T01:15:06.165Z,0
2018-09-11T01:16:12.064Z,0
2018-09-11T01:17:17.525Z,0
2018-09-11T01:18:22.685Z,0
2018-09-11T01:19:28.587Z,0
2018-09-11T01:20:33.753Z,0
2018-09-11T01:21:39.260Z,0
2018-09-11T01:22:44.761Z,0
2018-09-11T01:23:49.907Z,0
2018-09-11T01:24:55.414Z,0
2018-09-11T01:26:00.846Z,0
2018-09-11T01:27:05.726Z,0
2018-09-11T01:28:11.662Z,0
2018-09-11T01:29:15.986Z,0
2018-09-11T01:30:21.415Z,0
2018-09-11T01:31:26.875Z,0
2018-09-11T01:32:32.317Z,0
2018-09-11T01:33:38.027Z,0
2018-09-11T01:34:43.514Z,0
2018-09-11T01:35:48.943Z,0
2018-09-11T01:36:54.492Z,0
2018-09-11T01:38:00.013Z,0
2018-09-11T01:39:05.502Z,0
2018-09-11T01:40:10.993Z,0
2018-09-11T01:41:16.136Z,0
2018-09-11T01:42:21.384Z,0
2018-09-11T01:43:27.113Z,0
2018-09-11T01:44:32.555Z,0
2018-09-11T01:45:38.201Z,0
2018-09-11T01:46:43.357Z,0
2018-09-11T01:47:48.511Z,0
2018-09-11T01:48:53.487Z,0
2018-09-11T01:49:58.942Z,0
2018-09-11T01:51:04.374Z,0
2018-09-11T01:52:10.098Z,0
2018-09-11T01:53:15.267Z,0
2018-09-11T01:54:20.702Z,0
2018-09-11T01:55:26.200Z,0
2018-09-11T01:56:31.749Z,0
2018-09-11T01:57:37.802Z,0
2018-09-11T01:58:42.654Z,0
2018-09-11T01:59:47.622Z,0
2018-09-11T02:00:53.344Z,0
2018-09-11T02:01:58.772Z,0
2018-09-11T02:03:03.834Z,0
2018-09-11T02:04:09.301Z,0
2018-09-11T02:05:14.243Z,0
2018-09-11T02:06:19.774Z,0
2018-09-11T02:07:25.162Z,0
2018-09-11T02:08:30.651Z,0
2018-09-11T02:09:36.268Z,0
2018-09-11T02:10:41.756Z,0
2018-09-11T02:11:46.623Z,0
2018-09-11T02:12:52.501Z,0
2018-09-11T02:13:58.005Z,0
2018-09-11T02:15:02.616Z,0
2018-09-11T02:16:08.079Z,0
2018-09-11T02:17:13.647Z,0
2018-09-11T02:18:19.152Z,0
2018-09-11T02:19:23.798Z,0
2018-09-11T02:20:28.682Z,0
2018-09-11T02:21:34.198Z,0
2018-09-11T02:22:39.061Z,0
2018-09-11T02:23:43.990Z,0
2018-09-11T02:24:49.737Z,0
2018-09-11T02:25:55.171Z,0
2018-09-11T02:27:00.331Z,0
2018-09-11T02:28:05.898Z,0
2018-09-11T02:29:11.331Z,0
2018-09-11T02:30:16.224Z,0
2018-09-11T02:31:21.901Z,0
2018-09-11T02:32:27.092Z,0
2018-09-11T02:33:32.791Z,0
2018-09-11T02:34:38.308Z,0
2018-09-11T02:35:43.424Z,0
2018-09-11T02:36:49.435Z,0
2018-09-11T02:37:54.879Z,0
2018-09-11T02:39:00.421Z,0
2018-09-11T02:40:05.692Z,0
2018-09-11T02:41:10.668Z,0
2018-09-11T02:42:15.538Z,0
2018-09-11T02:43:20.777Z,0
2018-09-11T02:44:25.666Z,0
2018-09-11T02:45:31.489Z,0
2018-09-11T02:46:36.664Z,0
2018-09-11T02:47:41.820Z,0
2018-09-11T02:48:47.646Z,0
2018-09-11T02:49:52.276Z,0
2018-09-11T02:50:57.778Z,0
2018-09-11T02:52:02.764Z,0
2018-09-11T02:53:07.918Z,0
2018-09-11T02:54:13.146Z,0
2018-09-11T02:55:18.536Z,0
2018-09-11T02:56:24.042Z,0
2018-09-11T02:57:29.646Z,0
2018-09-11T02:58:35.141Z,0
2018-09-11T02:59:40.306Z,0
2018-09-11T03:00:45.867Z,0
2018-09-11T03:01:50.743Z,0
2018-09-11T03:02:56.344Z,0
2018-09-11T03:04:01.777Z,0
2018-09-11T03:05:06.414Z,0
2018-09-11T03:06:11.569Z,0
2018-09-11T03:07:17.347Z,0
2018-09-11T03:08:22.268Z,0
2018-09-11T03:09:27.822Z,0
2018-09-11T03:10:33.298Z,0
2018-09-11T03:11:38.510Z,0
2018-09-11T03:12:44.019Z,0
2018-09-11T03:13:49.533Z,0
2018-09-11T03:14:55.094Z,0
2018-09-11T03:16:00.852Z,0
2018-09-11T03:17:05.749Z,0
2018-09-11T03:18:10.926Z,0
2018-09-11T03:19:16.335Z,0
2018-09-11T03:20:21.330Z,0
2018-09-11T03:21:41.230Z,0
2018-09-11T03:22:46.679Z,0
2018-09-11T03:23:52.105Z,0
2018-09-11T03:24:57.466Z,0
2018-09-11T03:26:02.627Z,0
2018-09-11T03:27:08.064Z,0
2018-09-11T03:28:13.659Z,0
2018-09-11T03:29:18.516Z,0
2018-09-11T03:30:23.768Z,0
2018-09-11T03:31:29.250Z,0
2018-09-11T03:32:34.677Z,0
2018-09-11T03:33:39.913Z,0
2018-09-11T03:34:45.430Z,0
2018-09-11T03:35:50.580Z,0
2018-09-11T03:36:55.974Z,0
2018-09-11T03:38:01.326Z,0
2018-09-11T03:39:06.472Z,0
2018-09-11T03:40:12.205Z,0
2018-09-11T03:41:17.405Z,0
2018-09-11T03:42:22.544Z,0
2018-09-11T03:43:28.381Z,0
2018-09-11T03:44:33.085Z,0
2018-09-11T03:45:38.894Z,0
2018-09-11T03:46:44.416Z,0
2018-09-11T03:47:49.660Z,0
2018-09-11T03:48:55.502Z,0
2018-09-11T03:50:00.654Z,0
2018-09-11T03:51:05.910Z,0
2018-09-11T03:52:11.597Z,0
2018-09-11T03:53:17.047Z,0
2018-09-11T03:54:22.212Z,0
2018-09-11T03:55:41.697Z,0
2018-09-11T03:56:46.865Z,0
2018-09-11T03:57:52.570Z,0
2018-09-11T03:58:57.827Z,0
2018-09-11T04:00:02.721Z,0
2018-09-11T04:01:08.118Z,0
2018-09-11T04:02:13.319Z,0
2018-09-11T04:03:18.474Z,0
2018-09-11T04:04:24.151Z,0
2018-09-11T04:05:29.630Z,0
2018-09-11T04:06:35.413Z,0
2018-09-11T04:07:40.566Z,0
2018-09-11T04:08:45.725Z,0
2018-09-11T04:09:50.975Z,0
2018-09-11T04:10:55.852Z,0
2018-09-11T04:12:00.757Z,0
2018-09-11T04:13:06.170Z,0
2018-09-11T04:14:11.598Z,0
2018-09-11T04:15:16.254Z,0
2018-09-11T04:16:21.798Z,0
2018-09-11T04:17:26.386Z,0
2018-09-11T04:18:32.471Z,0
2018-09-11T04:19:37.616Z,0
2018-09-11T04:20:42.810Z,0
2018-09-11T04:21:48.288Z,0
2018-09-11T04:22:53.496Z,0
2018-09-11T04:23:58.671Z,0
2018-09-11T04:25:04.194Z,0
2018-09-11T04:26:09.061Z,0
2018-09-11T04:27:14.525Z,0
2018-09-11T04:28:19.927Z,0
2018-09-11T04:29:24.801Z,0
2018-09-11T04:30:30.389Z,0
2018-09-11T04:31:35.880Z,0
2018-09-11T04:32:40.753Z,0
2018-09-11T04:33:46.181Z,0
2018-09-11T04:34:51.054Z,0
2018-09-11T04:35:56.204Z,0
2018-09-11T04:37:01.308Z,0
2018-09-11T04:38:06.491Z,0
2018-09-11T04:39:11.639Z,0
2018-09-11T04:40:16.594Z,0
2018-09-11T04:41:21.895Z,0
2018-09-11T04:42:27.925Z,0
2018-09-11T04:43:32.841Z,0
2018-09-11T04:44:38.397Z,0
2018-09-11T04:45:44.071Z,0
2018-09-11T04:46:49.539Z,0
2018-09-11T04:47:55.004Z,0
2018-09-11T04:49:00.492Z,0
2018-09-11T04:50:05.971Z,0
2018-09-11T04:51:10.629Z,0
2018-09-11T04:52:15.511Z,0
2018-09-11T04:53:20.756Z,0
2018-09-11T04:54:40.856Z,0
2018-09-11T04:55:46.016Z,0
2018-09-11T04:56:51.199Z,0
2018-09-11T04:57:56.769Z,0
2018-09-11T04:59:01.963Z,0
2018-09-11T05:00:06.575Z,0
2018-09-11T05:01:12.258Z,0
2018-09-11T05:02:17.487Z,0
2018-09-11T05:03:22.665Z,0
2018-09-11T05:04:28.108Z,0
2018-09-11T05:05:33.541Z,0
2018-09-11T05:06:39.230Z,0
2018-09-11T05:07:44.421Z,0
2018-09-11T05:08:49.870Z,0
2018-09-11T05:09:55.425Z,0
2018-09-11T05:11:00.689Z,0
2018-09-11T05:12:05.617Z,0
2018-09-11T05:13:11.470Z,0
2018-09-11T05:14:17.000Z,0
2018-09-11T05:15:22.157Z,0
2018-09-11T05:16:42.304Z,0
2018-09-11T05:17:47.755Z,0
2018-09-11T05:18:53.449Z,0
2018-09-11T05:19:58.653Z,0
2018-09-11T05:21:03.525Z,0
2018-09-11T05:22:08.929Z,6
2018-09-11T05:23:14.303Z,6
2018-09-11T05:24:19.455Z,6
2018-09-11T05:25:24.709Z,6
2018-09-11T05:26:29.937Z,6
2018-09-11T05:27:36.272Z,6
2018-09-11T05:28:41.375Z,6
2018-09-11T05:29:46.572Z,6
2018-09-11T05:30:52.041Z,6
2018-09-11T05:31:57.179Z,6
2018-09-11T05:33:02.064Z,6
2018-09-11T05:34:07.755Z,6
2018-09-11T05:35:13.181Z,6
2018-09-11T05:36:18.638Z,6
2018-09-11T05:37:24.367Z,6
2018-09-11T05:38:29.684Z,0
2018-09-11T05:39:35.415Z,0
2018-09-11T05:40:40.852Z,0
2018-09-11T05:41:46.285Z,6
2018-09-11T05:42:51.967Z,6
2018-09-11T05:43:57.444Z,6
2018-09-11T05:45:02.588Z,6
2018-09-11T05:46:08.136Z,6
2018-09-11T05:47:13.797Z,6
2018-09-11T05:48:19.581Z,6
2018-09-11T05:49:24.561Z,6
2018-09-11T05:50:29.811Z,6
2018-09-11T05:51:35.324Z,6
2018-09-11T05:52:40.482Z,24
2018-09-11T05:53:45.932Z,24
2018-09-11T05:54:51.631Z,24
2018-09-11T05:55:56.929Z,24
2018-09-11T05:57:02.072Z,24
2018-09-11T05:58:07.220Z,24
2018-09-11T05:59:12.366Z,24
2018-09-11T06:00:17.860Z,24
2018-09-11T06:01:23.676Z,24
2018-09-11T06:02:28.546Z,24
2018-09-11T06:03:34.101Z,40
2018-09-11T06:04:39.254Z,40
2018-09-11T06:05:45.055Z,24
2018-09-11T06:06:50.683Z,24
2018-09-11T06:07:55.864Z,24
2018-09-11T06:09:01.150Z,40
2018-09-11T06:10:06.262Z,40
2018-09-11T06:11:11.760Z,40
2018-09-11T06:12:16.627Z,40
2018-09-11T06:13:22.345Z,40
2018-09-11T06:14:27.862Z,40
2018-09-11T06:15:33.599Z,40
2018-09-11T06:16:38.752Z,13
2018-09-11T06:17:44.238Z,31
2018-09-11T06:18:49.806Z,13
2018-09-11T06:19:54.963Z,13
2018-09-11T06:20:59.601Z,31
2018-09-11T06:22:05.177Z,31
2018-09-11T06:23:10.057Z,31
2018-09-11T06:24:15.324Z,31
2018-09-11T06:25:20.827Z,31
2018-09-11T06:26:26.290Z,31
2018-09-11T06:27:31.358Z,31
2018-09-11T06:28:36.901Z,31
2018-09-11T06:29:42.398Z,48
2018-09-11T06:30:48.267Z,48
2018-09-11T06:31:53.562Z,37
2018-09-11T06:32:59.119Z,48
2018-09-11T06:34:04.527Z,48
2018-09-11T06:35:09.967Z,31
2018-09-11T06:36:15.530Z,31
2018-09-11T06:37:21.007Z,31
2018-09-11T06:38:26.177Z,48
2018-09-11T06:39:31.714Z,48
2018-09-11T06:40:37.148Z,48
2018-09-11T06:41:42.364Z,48
2018-09-11T06:42:47.878Z,48
2018-09-11T06:43:52.771Z,48
2018-09-11T06:44:58.275Z,48
2018-09-11T06:46:03.456Z,48
2018-09-11T06:47:08.393Z,64
2018-09-11T06:48:13.769Z,64
2018-09-11T06:49:19.591Z,64
2018-09-11T06:50:24.459Z,37
2018-09-11T06:51:29.065Z,37
2018-09-11T06:52:34.313Z,72
2018-09-11T06:53:39.502Z,37
2018-09-11T06:54:45.135Z,37
2018-09-11T06:55:50.285Z,37
2018-09-11T06:56:55.824Z,37
2018-09-11T06:58:00.976Z,37
2018-09-11T06:59:06.612Z,37
2018-09-11T07:00:12.106Z,55
2018-09-11T07:01:17.796Z,62
2018-09-11T07:02:22.650Z,55
2018-09-11T07:03:28.519Z,72
2018-09-11T07:04:33.816Z,55
2018-09-11T07:05:38.976Z,55
2018-09-11T07:06:44.679Z,48
2018-09-11T07:07:49.823Z,64
2018-09-11T07:08:55.253Z,37
2018-09-11T07:10:00.932Z,37
2018-09-11T07:11:06.465Z,37
2018-09-11T07:12:11.607Z,37
2018-09-11T07:13:17.629Z,55
2018-09-11T07:14:22.806Z,37
2018-09-11T07:15:29.145Z,68
2018-09-11T07:16:34.012Z,68
2018-09-11T07:17:39.646Z,79
2018-09-11T07:18:45.641Z,95
2018-09-11T07:19:51.871Z,72
2018-09-11T07:20:58.034Z,62
2018-09-11T07:22:05.796Z,44
2018-09-11T07:23:10.946Z,103
2018-09-11T07:24:16.555Z,103
2018-09-11T07:25:22.084Z,55
2018-09-11T07:26:27.228Z,55
2018-09-11T07:27:32.346Z,55
2018-09-11T07:28:37.557Z,72
2018-09-11T07:29:42.792Z,103
2018-09-11T07:30:48.237Z,79
2018-09-11T07:31:53.099Z,95
2018-09-11T07:32:57.974Z,95
2018-09-11T07:34:03.439Z,86
2018-09-11T07:35:08.584Z,79
2018-09-11T07:36:14.131Z,95
2018-09-11T07:37:19.517Z,79
2018-09-11T07:38:24.417Z,88
2018-09-11T07:39:30.122Z,79
2018-09-11T07:40:35.279Z,95
2018-09-11T07:41:40.148Z,55
2018-09-11T07:42:45.952Z,95
2018-09-11T07:43:51.139Z,88
2018-09-11T07:44:56.578Z,95
2018-09-11T07:46:02.404Z,95
2018-09-11T07:47:07.672Z,95
2018-09-11T07:48:12.832Z,112
2018-09-11T07:49:18.763Z,95
2018-09-11T07:50:24.251Z,86
2018-09-11T07:51:30.227Z,95
2018-09-11T07:52:35.853Z,86
2018-09-11T07:53:41.388Z,95
2018-09-11T07:54:46.232Z,62
2018-09-11T07:55:51.709Z,88
2018-09-11T07:56:57.143Z,95
2018-09-11T07:58:02.477Z,86
2018-09-11T07:59:08.285Z,103
2018-09-11T08:00:13.445Z,103
2018-09-11T08:01:18.867Z,103
2018-09-11T08:02:24.279Z,103
2018-09-11T08:03:29.918Z,103
2018-09-11T08:04:35.195Z,86
2018-09-11T08:05:40.088Z,119
2018-09-11T08:06:45.682Z,119
2018-09-11T08:07:51.165Z,119
2018-09-11T08:08:56.027Z,119
2018-09-11T08:10:02.280Z,119
2018-09-11T08:11:07.168Z,103
2018-09-11T08:12:12.629Z,119
2018-09-11T08:13:18.440Z,119
2018-09-11T08:14:23.863Z,119
2018-09-11T08:15:29.445Z,119
2018-09-11T08:16:34.722Z,103
2018-09-11T08:17:39.941Z,92
2018-09-11T08:18:45.421Z,103
2018-09-11T08:19:50.632Z,103
2018-09-11T08:20:55.805Z,103
2018-09-11T08:22:01.043Z,86
2018-09-11T08:23:06.470Z,112
2018-09-11T08:24:11.996Z,55
2018-09-11T08:25:16.890Z,62
2018-09-11T08:26:21.484Z,86
2018-09-11T08:27:42.409Z,86
2018-09-11T08:28:47.838Z,86
2018-09-11T08:29:53.299Z,95
2018-09-11T08:30:57.975Z,79
2018-09-11T08:32:02.570Z,79
2018-09-11T08:33:07.743Z,79
2018-09-11T08:34:13.258Z,79
2018-09-11T08:35:18.119Z,103
2018-09-11T08:36:23.110Z,86
2018-09-11T08:37:28.619Z,86
2018-09-11T08:38:33.211Z,95
2018-09-11T08:39:39.558Z,86
2018-09-11T08:40:44.971Z,103
2018-09-11T08:41:50.119Z,119
2018-09-11T08:42:55.353Z,110
2018-09-11T08:44:00.959Z,110
2018-09-11T08:45:05.814Z,110
2018-09-11T08:46:11.467Z,110
2018-09-11T08:47:16.622Z,110
2018-09-11T08:48:21.498Z,110
2018-09-11T08:49:26.704Z,110
2018-09-11T08:50:31.587Z,110
2018-09-11T08:51:36.741Z,110
2018-09-11T08:52:42.068Z,92
2018-09-11T08:53:47.535Z,119
2018-09-11T08:54:53.020Z,103
2018-09-11T08:55:58.780Z,119
2018-09-11T08:57:04.011Z,119
2018-09-11T08:58:09.531Z,92
2018-09-11T08:59:14.398Z,103
2018-09-11T09:00:19.497Z,86
2018-09-11T09:01:24.418Z,86
2018-09-11T09:02:29.562Z,103
2018-09-11T09:03:35.293Z,103
2018-09-11T09:04:40.490Z,86
2018-09-11T09:05:45.362Z,68
2018-09-11T09:06:51.823Z,86
2018-09-11T09:07:57.243Z,103
2018-09-11T09:09:02.396Z,86
2018-09-11T09:10:07.719Z,95
2018-09-11T09:11:12.831Z,86
2018-09-11T09:12:18.255Z,119
2018-09-11T09:13:22.991Z,110
2018-09-11T09:14:28.182Z,86
2018-09-11T09:15:33.442Z,95
2018-09-11T09:16:39.004Z,103
2018-09-11T09:17:44.169Z,92
2018-09-11T09:18:49.852Z,79
2018-09-11T09:19:55.017Z,95
2018-09-11T09:21:00.026Z,88
2018-09-11T09:22:05.697Z,72
2018-09-11T09:23:10.908Z,95
2018-09-11T09:24:16.162Z,95
2018-09-11T09:25:21.998Z,86
2018-09-11T09:26:27.479Z,95
2018-09-11T09:27:33.553Z,103
2018-09-11T09:28:39.204Z,86
2018-09-11T09:29:44.547Z,86
2018-09-11T09:30:49.709Z,88
2018-09-11T09:31:54.903Z,86
2018-09-11T09:33:00.127Z,86
2018-09-11T09:34:05.814Z,86
2018-09-11T09:35:10.116Z,68
2018-09-11T09:36:15.467Z,68
2018-09-11T09:37:20.835Z,86
2018-09-11T09:38:26.266Z,86
2018-09-11T09:39:32.087Z,103
2018-09-11T09:40:37.293Z,86
2018-09-11T09:41:42.721Z,92
2018-09-11T09:42:48.400Z,88
2018-09-11T09:43:53.951Z,103
2018-09-11T09:44:59.242Z,103
2018-09-11T09:46:04.863Z,103
2018-09-11T09:47:10.121Z,86
2018-09-11T09:48:15.290Z,86
2018-09-11T09:49:21.469Z,119
2018-09-11T09:50:26.719Z,92
2018-09-11T09:51:32.814Z,86
2018-09-11T09:52:37.667Z,86
2018-09-11T09:53:43.173Z,86
2018-09-11T09:54:48.863Z,86
2018-09-11T09:55:54.650Z,92
2018-09-11T09:57:00.282Z,119
2018-09-11T09:58:05.780Z,92
2018-09-11T09:59:11.013Z,92
2018-09-11T10:00:16.461Z,110
2018-09-11T10:01:21.817Z,127
2018-09-11T10:02:26.971Z,127
2018-09-11T10:03:31.892Z,110
2018-09-11T10:04:37.210Z,110
2018-09-11T10:05:42.060Z,110
2018-09-11T10:06:47.842Z,95
2018-09-11T10:07:52.789Z,103
2018-09-11T10:08:58.101Z,103
2018-09-11T10:10:03.263Z,92
2018-09-11T10:11:08.165Z,68
2018-09-11T10:12:13.313Z,103
2018-09-11T10:13:18.739Z,86
2018-09-11T10:14:24.166Z,86
2018-09-11T10:15:28.832Z,86
2018-09-11T10:16:33.981Z,86
2018-09-11T10:17:39.644Z,103
2018-09-11T10:18:45.713Z,86
2018-09-11T10:19:50.589Z,86
2018-09-11T10:20:56.012Z,86
2018-09-11T10:22:01.488Z,68
2018-09-11T10:23:07.117Z,86
2018-09-11T10:24:12.548Z,103
2018-09-11T10:25:17.490Z,92
2018-09-11T10:26:22.920Z,110
2018-09-11T10:27:28.411Z,110
2018-09-11T10:28:33.744Z,99
2018-09-11T10:29:38.903Z,99
2018-09-11T10:30:44.720Z,110
2018-09-11T10:31:50.240Z,110
2018-09-11T10:32:55.873Z,110
2018-09-11T10:34:01.345Z,92
2018-09-11T10:35:06.239Z,103
2018-09-11T10:36:11.140Z,103
2018-09-11T10:37:16.070Z,92
2018-09-11T10:38:20.941Z,86
2018-09-11T10:39:27.386Z,110
2018-09-11T10:40:32.440Z,110
2018-09-11T10:41:37.918Z,110
2018-09-11T10:42:43.389Z,110
2018-09-11T10:43:48.718Z,127
2018-09-11T10:44:54.290Z,127
2018-09-11T10:45:59.904Z,127
2018-09-11T10:47:04.769Z,110
2018-09-11T10:48:09.998Z,103
2018-09-11T10:49:14.891Z,92
2018-09-11T10:50:20.040Z,92
2018-09-11T10:51:25.656Z,92
2018-09-11T10:52:30.247Z,92
2018-09-11T10:53:35.426Z,110
2018-09-11T10:54:41.123Z,92
2018-09-11T10:55:46.602Z,103
2018-09-11T10:56:51.358Z,103
2018-09-11T10:57:56.934Z,103
2018-09-11T10:59:01.851Z,92
2018-09-11T11:00:06.687Z,92
2018-09-11T11:01:11.899Z,92
2018-09-11T11:02:17.061Z,127
2018-09-11T11:03:22.206Z,92
2018-09-11T11:04:28.210Z,103
2018-09-11T11:05:33.705Z,92
2018-09-11T11:06:39.634Z,92
2018-09-11T11:07:45.068Z,103
2018-09-11T11:08:50.240Z,86
2018-09-11T11:09:55.656Z,92
2018-09-11T11:11:00.548Z,110
2018-09-11T11:12:05.700Z,92
2018-09-11T11:13:11.239Z,92
2018-09-11T11:14:16.172Z,74
2018-09-11T11:15:21.603Z,92
2018-09-11T11:16:26.761Z,110
2018-09-11T11:17:32.326Z,92
2018-09-11T11:18:37.854Z,103
2018-09-11T11:19:43.007Z,103
2018-09-11T11:20:48.514Z,103
2018-09-11T11:21:53.389Z,74
2018-09-11T11:22:58.260Z,92
2018-09-11T11:24:03.451Z,92
2018-09-11T11:25:08.402Z,92
2018-09-11T11:26:13.551Z,103
2018-09-11T11:27:19.046Z,92
2018-09-11T11:28:24.246Z,92
2018-09-11T11:29:29.672Z,103
2018-09-11T11:30:35.081Z,92
2018-09-11T11:31:40.230Z,92
2018-09-11T11:32:45.159Z,103
2018-09-11T11:33:50.846Z,92
2018-09-11T11:34:56.096Z,92
2018-09-11T11:36:01.655Z,92
2018-09-11T11:37:08.191Z,92
2018-09-11T11:38:13.802Z,92
2018-09-11T11:39:18.644Z,92
2018-09-11T11:40:24.375Z,74
2018-09-11T11:41:29.542Z,92
2018-09-11T11:42:34.106Z,103
2018-09-11T11:43:39.602Z,103
2018-09-11T11:44:44.843Z,103
2018-09-11T11:45:49.956Z,103
2018-09-11T11:46:55.401Z,103
2018-09-11T11:47:59.990Z,86
2018-09-11T11:49:05.144Z,103
2018-09-11T11:50:10.044Z,92
2018-09-11T11:51:15.199Z,103
2018-09-11T11:52:20.914Z,68
2018-09-11T11:53:26.423Z,86
2018-09-11T11:54:31.907Z,103
2018-09-11T11:55:37.372Z,92
2018-09-11T11:56:42.040Z,92
2018-09-11T11:57:47.441Z,92
2018-09-11T11:58:52.898Z,92
2018-09-11T11:59:58.423Z,103
2018-09-11T12:01:03.677Z,103
2018-09-11T12:02:08.439Z,103
2018-09-11T12:03:13.764Z,103
2018-09-11T12:04:19.164Z,103
2018-09-11T12:05:24.665Z,103
2018-09-11T12:06:30.439Z,103
2018-09-11T12:07:35.595Z,103
2018-09-11T12:08:40.811Z,74
2018-09-11T12:09:45.873Z,92
2018-09-11T12:10:51.318Z,103
2018-09-11T12:11:56.816Z,103
2018-09-11T12:13:01.979Z,92
2018-09-11T12:14:07.415Z,103
2018-09-11T12:15:12.571Z,103
2018-09-11T12:16:17.800Z,92
2018-09-11T12:17:23.206Z,103
2018-09-11T12:18:29.246Z,103
2018-09-11T12:19:34.744Z,103
2018-09-11T12:20:40.228Z,103
2018-09-11T12:21:46.513Z,103
2018-09-11T12:22:51.366Z,103
2018-09-11T12:23:56.748Z,103
2018-09-11T12:25:01.869Z,92
2018-09-11T12:26:06.804Z,92
2018-09-11T12:27:12.394Z,92
2018-09-11T12:28:17.957Z,103
2018-09-11T12:29:23.616Z,103
2018-09-11T12:30:29.457Z,103
2018-09-11T12:31:34.605Z,103
2018-09-11T12:32:39.781Z,103
2018-09-11T12:33:45.045Z,103
2018-09-11T12:34:50.494Z,103
2018-09-11T12:35:55.373Z,103
2018-09-11T12:37:01.108Z,103
2018-09-11T12:38:05.708Z,103
2018-09-11T12:39:10.628Z,103
2018-09-11T12:40:15.843Z,86
2018-09-11T12:41:21.246Z,86
2018-09-11T12:42:41.154Z,86
2018-09-11T12:43:46.608Z,86
2018-09-11T12:44:52.081Z,86
2018-09-11T12:45:58.336Z,86
2018-09-11T12:47:05.421Z,86
2018-09-11T12:48:12.432Z,103
2018-09-11T12:49:20.464Z,86
2018-09-11T12:50:25.670Z,103
2018-09-11T12:51:31.519Z,103
2018-09-11T12:52:37.308Z,103
2018-09-11T12:53:42.943Z,86
2018-09-11T12:54:48.370Z,103
2018-09-11T12:55:53.557Z,86
2018-09-11T12:56:58.798Z,86
2018-09-11T12:58:04.141Z,95
2018-09-11T12:59:08.752Z,86
2018-09-11T13:00:14.192Z,86
2018-09-11T13:01:19.644Z,86
2018-09-11T13:02:25.383Z,86
2018-09-11T13:03:31.287Z,68
2018-09-11T13:04:36.434Z,95
2018-09-11T13:05:41.940Z,95
2018-09-11T13:06:47.078Z,95
2018-09-11T13:07:51.936Z,95
2018-09-11T13:08:57.394Z,95
2018-09-11T13:10:02.532Z,95
2018-09-11T13:11:07.201Z,79
2018-09-11T13:12:12.633Z,79
2018-09-11T13:13:18.128Z,79
2018-09-11T13:14:23.002Z,79
2018-09-11T13:15:28.870Z,95
2018-09-11T13:16:33.522Z,95
2018-09-11T13:17:38.665Z,95
2018-09-11T13:18:44.348Z,79
2018-09-11T13:19:49.855Z,79
2018-09-11T13:20:55.034Z,79
2018-09-11T13:22:00.960Z,95
2018-09-11T13:23:05.862Z,95
2018-09-11T13:24:10.723Z,95
2018-09-11T13:25:16.363Z,95
2018-09-11T13:26:21.890Z,95
2018-09-11T13:27:27.873Z,95
2018-09-11T13:28:33.029Z,95
2018-09-11T13:29:38.240Z,95
2018-09-11T13:30:44.020Z,79
2018-09-11T13:31:49.166Z,79
2018-09-11T13:32:53.783Z,79
2018-09-11T13:33:59.060Z,79
2018-09-11T13:35:03.459Z,79
2018-09-11T13:36:08.617Z,79
2018-09-11T13:37:14.500Z,95
2018-09-11T13:38:19.653Z,95
2018-09-11T13:39:24.562Z,79
2018-09-11T13:40:30.241Z,95
2018-09-11T13:41:35.095Z,95
2018-09-11T13:42:39.953Z,95
2018-09-11T13:43:44.874Z,95
2018-09-11T13:44:49.752Z,112
2018-09-11T13:45:54.960Z,95
2018-09-11T13:47:00.087Z,95
2018-09-11T13:48:05.930Z,95
2018-09-11T13:49:11.646Z,95
2018-09-11T13:50:16.855Z,95
2018-09-11T13:51:22.004Z,95
2018-09-11T13:52:27.813Z,95
2018-09-11T13:53:32.952Z,112
2018-09-11T13:54:38.457Z,86
2018-09-11T13:55:43.715Z,112
2018-09-11T13:56:48.947Z,112
2018-09-11T13:57:54.714Z,95
2018-09-11T13:58:59.939Z,112
2018-09-11T14:00:05.091Z,86
2018-09-11T14:01:10.359Z,86
2018-09-11T14:02:15.251Z,86
2018-09-11T14:03:20.462Z,112
2018-09-11T14:04:25.766Z,95
2018-09-11T14:05:30.555Z,95
2018-09-11T14:06:36.244Z,95
2018-09-11T14:07:41.688Z,95
2018-09-11T14:08:46.826Z,95
2018-09-11T14:09:51.713Z,95
2018-09-11T14:10:56.293Z,95
2018-09-11T14:12:01.171Z,79
2018-09-11T14:13:06.481Z,79
2018-09-11T14:14:12.038Z,79
2018-09-11T14:15:16.916Z,95
2018-09-11T14:16:22.508Z,95
2018-09-11T14:17:27.384Z,95
2018-09-11T14:18:32.776Z,95
2018-09-11T14:19:38.232Z,95
2018-09-11T14:20:43.104Z,79
2018-09-11T14:21:48.792Z,79
2018-09-11T14:22:54.295Z,62
2018-09-11T14:23:59.489Z,79
2018-09-11T14:25:04.484Z,79
2018-09-11T14:26:09.641Z,95
2018-09-11T14:27:14.583Z,95
2018-09-11T14:28:20.168Z,95
2018-09-11T14:29:25.319Z,95
2018-09-11T14:30:30.814Z,95
2018-09-11T14:31:35.992Z,95
2018-09-11T14:32:41.488Z,112
2018-09-11T14:33:46.902Z,112
2018-09-11T14:34:52.415Z,112
2018-09-11T14:35:57.559Z,112
2018-09-11T14:37:02.996Z,112
2018-09-11T14:38:08.158Z,86
2018-09-11T14:39:13.614Z,86
2018-09-11T14:40:18.850Z,86
2018-09-11T14:41:24.278Z,86
2018-09-11T14:42:30.210Z,86
2018-09-11T14:43:35.721Z,86
2018-09-11T14:44:40.940Z,103
2018-09-11T14:45:46.622Z,103
2018-09-11T14:46:52.073Z,103
2018-09-11T14:47:57.287Z,103
2018-09-11T14:49:02.845Z,103
2018-09-11T14:50:07.446Z,103
2018-09-11T14:51:12.631Z,119
2018-09-11T14:52:18.306Z,119
2018-09-11T14:53:23.992Z,103
2018-09-11T14:54:44.139Z,119
2018-09-11T14:55:49.406Z,92
2018-09-11T14:56:54.376Z,92
2018-09-11T14:57:59.723Z,110
2018-09-11T14:59:04.502Z,110
2018-09-11T15:00:09.984Z,110
2018-09-11T15:01:15.575Z,110
2018-09-11T15:02:20.727Z,110
2018-09-11T15:03:26.579Z,127
2018-09-11T15:04:32.744Z,110
2018-09-11T15:05:38.169Z,127
2018-09-11T15:06:43.870Z,127
2018-09-11T15:07:49.229Z,127
2018-09-11T15:08:54.537Z,127
2018-09-11T15:10:00.066Z,127
2018-09-11T15:11:05.545Z,127
2018-09-11T15:12:09.843Z,143
2018-09-11T15:13:14.811Z,143
2018-09-11T15:14:20.238Z,127
2018-09-11T15:15:25.402Z,143
2018-09-11T15:16:30.806Z,134
2018-09-11T15:17:36.295Z,150
2018-09-11T15:18:41.409Z,150
2018-09-11T15:19:46.380Z,141
2018-09-11T15:20:51.857Z,141
2018-09-11T15:21:57.449Z,141
2018-09-11T15:23:02.700Z,158
2018-09-11T15:24:07.578Z,158
2018-09-11T15:25:13.295Z,141
2018-09-11T15:26:18.406Z,158
2018-09-11T15:27:23.597Z,158
2018-09-11T15:28:43.542Z,174
2018-09-11T15:29:48.574Z,174
2018-09-11T15:30:54.029Z,174
2018-09-11T15:31:59.172Z,174
2018-09-11T15:33:04.403Z,174
2018-09-11T15:34:09.891Z,174
2018-09-11T15:35:15.059Z,174
2018-09-11T15:36:20.539Z,174
2018-09-11T15:37:25.652Z,174
2018-09-11T15:38:31.078Z,174
2018-09-11T15:39:37.017Z,174
2018-09-11T15:40:41.623Z,174
2018-09-11T15:41:47.068Z,191
2018-09-11T15:42:52.516Z,165